Time;durP1;ratioP1;P1;durP2;ratioP2;P2;SDS_P1;SDS_P2;PMS_P1;PMS_P2;Temp;Humidity;BMP_temperature;BMP_pressure;BME280_temperature;BME280_humidity;BME280_pressure;Samples;Min_cycle;Max_cycle;Signal;HPM_P1;HPM_P2
2022/12/29 00:01:37;;;;;;;6.35;3.22;;;10.40;99.90;;;;;;4960520;28;20050;-81
2022/12/29 00:04:04;;;;;;;6.70;3.65;;;10.40;99.90;;;;;;4955733;28;20146;-82
2022/12/29 00:06:30;;;;;;;4.93;3.03;;;10.40;99.90;;;;;;4973770;28;20043;-81
2022/12/29 00:08:56;;;;;;;6.32;3.58;;;10.40;99.90;;;;;;4959679;28;20391;-82
2022/12/29 00:11:25;;;;;;;6.72;3.20;;;10.40;99.90;;;;;;4973606;28;20102;-81
2022/12/29 00:16:37;;;;;;;5.78;3.50;;;10.40;99.90;;;;;;4973452;28;20043;-81
2022/12/29 00:19:04;;;;;;;5.82;3.85;;;10.40;99.90;;;;;;4956659;28;20047;-81
2022/12/29 00:35:18;;;;;;;6.68;3.72;;;10.40;99.90;;;;;;4973521;28;20430;-82
2022/12/29 00:46:00;;;;;;;7.00;3.63;;;10.40;99.90;;;;;;4956054;28;20074;-82
2022/12/29 00:51:09;;;;;;;6.68;3.60;;;10.50;99.90;;;;;;4973058;28;20051;-82
2022/12/29 00:53:35;;;;;;;5.38;3.25;;;10.50;99.90;;;;;;4956259;28;20049;-82
2022/12/29 00:56:00;;;;;;;6.32;3.25;;;10.40;99.90;;;;;;4989792;28;20046;-82
2022/12/29 00:58:30;;;;;;;5.93;3.50;;;10.50;99.90;;;;;;4958306;28;20043;-82
2022/12/29 01:01:07;;;;;;;5.55;3.60;;;10.50;99.90;;;;;;4959787;28;20041;-82
2022/12/29 01:03:34;;;;;;;7.80;3.38;;;10.50;99.90;;;;;;4973613;28;20109;-82
2022/12/29 01:06:01;;;;;;;6.55;3.20;;;10.50;99.90;;;;;;4973004;28;20474;-82
2022/12/29 01:08:30;;;;;;;6.32;3.15;;;10.50;99.90;;;;;;4975369;28;20049;-82
2022/12/29 01:11:04;;;;;;;5.88;3.00;;;10.60;99.90;;;;;;4976075;28;20069;-82
2022/12/29 01:13:30;;;;;;;5.25;3.35;;;10.50;99.90;;;;;;4973997;28;20471;-82
2022/12/29 01:15:56;;;;;;;5.32;3.17;;;10.50;99.90;;;;;;4961028;28;20054;-82
2022/12/29 01:18:22;;;;;;;7.00;3.33;;;10.50;99.90;;;;;;4976613;28;20482;-82
2022/12/29 01:20:48;;;;;;;5.57;2.97;;;10.50;99.90;;;;;;4980835;28;20089;-82
2022/12/29 01:23:14;;;;;;;5.53;3.03;;;10.60;99.90;;;;;;4956173;28;20138;-82
2022/12/29 01:25:39;;;;;;;5.88;3.00;;;10.60;99.90;;;;;;4959597;28;20126;-81
2022/12/29 01:28:07;;;;;;;5.32;3.05;;;10.60;99.90;;;;;;4958840;28;20390;-81
2022/12/29 01:30:34;;;;;;;5.03;2.60;;;10.60;99.90;;;;;;4959623;28;20078;-82
2022/12/29 01:32:59;;;;;;;6.05;2.90;;;10.60;99.90;;;;;;4959521;28;20054;-82
2022/12/29 01:35:25;;;;;;;5.97;2.90;;;10.60;99.90;;;;;;4958461;28;20058;-82
2022/12/29 01:37:51;;;;;;;6.13;2.60;;;10.60;99.90;;;;;;4977623;28;20042;-82
2022/12/29 01:40:16;;;;;;;5.63;2.60;;;10.60;99.90;;;;;;4959078;28;20057;-82
2022/12/29 01:42:42;;;;;;;5.28;2.75;;;10.60;99.90;;;;;;4958878;28;20479;-82
2022/12/29 01:45:18;;;;;;;5.72;2.58;;;10.60;99.90;;;;;;4958985;28;20174;-82
2022/12/29 01:48:02;;;;;;;6.32;2.70;;;10.60;99.90;;;;;;4976045;28;20043;-81
2022/12/29 01:50:34;;;;;;;5.45;2.60;;;10.60;99.90;;;;;;4976338;28;20046;-82
2022/12/29 01:53:07;;;;;;;5.97;2.53;;;10.60;99.90;;;;;;4976506;28;20050;-82
2022/12/29 01:55:38;;;;;;;4.67;2.47;;;10.60;99.90;;;;;;4965411;28;20554;-81
2022/12/29 01:58:06;;;;;;;5.05;2.55;;;10.60;99.90;;;;;;4967048;28;20432;-82
2022/12/29 02:00:32;;;;;;;5.57;2.60;;;10.60;99.90;;;;;;4961442;28;20038;-81
2022/12/29 02:02:58;;;;;;;4.97;2.63;;;10.70;99.90;;;;;;4970168;28;20053;-81
2022/12/29 02:05:47;;;;;;;5.65;2.55;;;10.70;99.90;;;;;;4958693;28;20059;-82
2022/12/29 02:08:13;;;;;;;4.82;2.60;;;10.70;99.90;;;;;;4962797;28;20047;-82
2022/12/29 02:10:40;;;;;;;6.07;2.85;;;10.70;99.90;;;;;;4977191;28;20129;-82
2022/12/29 02:13:06;;;;;;;5.93;2.70;;;10.70;99.90;;;;;;4964647;28;20050;-82
2022/12/29 02:15:41;;;;;;;5.22;2.50;;;10.70;99.90;;;;;;4975460;28;20058;-82
2022/12/29 02:18:24;;;;;;;6.30;2.15;;;10.70;99.90;;;;;;4978014;28;20059;-82
2022/12/29 02:21:05;;;;;;;;;;;10.70;99.90;;;;;;4961460;28;20094;-81
2022/12/29 02:23:49;;;;;;;5.43;2.42;;;10.70;99.90;;;;;;4957723;28;19922;-82
2022/12/29 02:26:32;;;;;;;4.55;2.38;;;10.70;99.90;;;;;;4958289;28;20078;-83
2022/12/29 02:29:03;;;;;;;3.57;2.13;;;10.70;99.90;;;;;;4975926;28;20058;-82
2022/12/29 02:31:54;;;;;;;5.97;2.35;;;10.70;99.90;;;;;;4957683;28;20047;-82
2022/12/29 02:35:02;;;;;;;6.82;2.50;;;10.70;99.90;;;;;;4976651;28;20102;-82
2022/12/29 02:37:34;;;;;;;4.63;2.30;;;10.70;99.90;;;;;;4962593;28;20524;-81
2022/12/29 02:40:35;;;;;;;5.85;1.90;;;10.70;99.90;;;;;;4975509;28;20049;-82
2022/12/29 02:43:14;;;;;;;8.65;2.28;;;10.70;99.90;;;;;;4950172;28;20483;-82
2022/12/29 02:45:43;;;;;;;4.82;2.45;;;10.70;99.90;;;;;;4957823;28;20048;-82
2022/12/29 02:48:20;;;;;;;4.15;2.05;;;10.70;99.90;;;;;;4975849;28;20042;-82
2022/12/29 02:51:00;;;;;;;4.65;2.22;;;10.70;99.90;;;;;;4989812;28;20070;-82
2022/12/29 02:56:12;;;;;;;4.30;1.95;;;10.70;99.90;;;;;;4955900;29;20066;-82
2022/12/29 02:58:37;;;;;;;4.28;1.80;;;10.70;99.90;;;;;;4987880;28;20047;-82
2022/12/29 03:01:19;;;;;;;4.78;2.00;;;10.70;99.90;;;;;;4984428;28;20395;-82
2022/12/29 03:04:12;;;;;;;4.28;2.00;;;10.70;99.90;;;;;;4983486;28;20103;-82
2022/12/29 03:06:51;;;;;;;4.20;1.80;;;10.70;99.90;;;;;;4958117;28;20121;-82
2022/12/29 03:09:34;;;;;;;3.63;1.90;;;10.70;99.90;;;;;;4949093;28;20046;-82
2022/12/29 03:18:33;;;;;;;3.80;1.60;;;10.70;99.90;;;;;;4950981;28;20074;-83
2022/12/29 03:21:09;;;;;;;4.32;1.38;;;10.70;99.90;;;;;;4960647;28;20051;-83
2022/12/29 03:23:37;;;;;;;5.20;1.52;;;10.70;99.90;;;;;;4972005;28;20043;-83
2022/12/29 03:26:07;;;;;;;3.97;1.50;;;10.70;99.90;;;;;;4955346;28;20081;-83
2022/12/29 03:28:40;;;;;;;4.10;1.30;;;10.70;99.90;;;;;;4958046;28;20049;-84
2022/12/29 03:31:12;;;;;;;3.50;1.38;;;10.70;99.90;;;;;;4983512;28;20046;-83
2022/12/29 03:33:39;;;;;;;2.78;1.40;;;10.70;99.90;;;;;;4976123;28;20372;-84
2022/12/29 03:36:09;;;;;;;4.82;1.30;;;10.70;99.90;;;;;;4964626;28;20046;-83
2022/12/29 03:38:45;;;;;;;5.03;1.52;;;10.70;99.90;;;;;;4966398;28;20101;-83
2022/12/29 03:41:20;;;;;;;2.97;1.20;;;10.70;99.90;;;;;;4981362;28;20506;-83
2022/12/29 03:43:46;;;;;;;3.75;1.38;;;10.70;99.90;;;;;;4977154;28;20043;-83
2022/12/29 03:46:11;;;;;;;3.78;1.17;;;10.70;99.90;;;;;;4955222;28;20038;-83
2022/12/29 03:48:37;;;;;;;3.65;1.20;;;10.70;99.90;;;;;;4956288;28;20074;-83
2022/12/29 03:51:03;;;;;;;4.85;1.55;;;10.70;99.90;;;;;;4976860;28;20074;-83
2022/12/29 03:53:28;;;;;;;4.55;1.48;;;10.70;99.90;;;;;;4972621;28;20081;-83
2022/12/29 03:55:54;;;;;;;4.80;1.20;;;10.70;99.90;;;;;;4954917;28;20090;-83
2022/12/29 03:58:19;;;;;;;4.75;1.35;;;10.70;99.90;;;;;;4955995;28;20556;-83
2022/12/29 04:00:45;;;;;;;4.78;1.30;;;10.60;99.90;;;;;;4961591;28;20094;-83
2022/12/29 04:03:10;;;;;;;3.90;1.35;;;10.60;99.90;;;;;;4974842;28;20368;-83
2022/12/29 04:05:36;;;;;;;5.28;1.20;;;10.70;99.90;;;;;;4972547;28;20129;-83
2022/12/29 04:08:02;;;;;;;7.32;1.60;;;10.60;99.90;;;;;;4960944;28;20479;-84
2022/12/29 04:10:27;;;;;;;5.72;1.20;;;10.60;99.90;;;;;;4980997;28;20062;-83
2022/12/29 04:12:53;;;;;;;6.63;1.15;;;10.60;99.90;;;;;;4973904;28;20043;-83
2022/12/29 04:15:18;;;;;;;7.47;1.38;;;10.60;99.90;;;;;;4956899;28;20093;-83
2022/12/29 04:17:44;;;;;;;4.15;0.90;;;10.60;99.90;;;;;;4937769;29;20381;-83
2022/12/29 04:23:04;;;;;;;3.30;0.85;;;10.60;99.90;;;;;;4971868;28;20047;-83
2022/12/29 04:25:30;;;;;;;7.47;1.00;;;10.60;99.90;;;;;;4955068;28;20042;-83
2022/12/29 04:27:56;;;;;;;6.78;1.20;;;10.50;99.90;;;;;;4972497;28;20043;-83
2022/12/29 04:30:22;;;;;;;6.53;1.00;;;10.50;99.90;;;;;;4971269;28;20031;-83
2022/12/29 04:32:47;;;;;;;5.07;0.95;;;10.50;99.90;;;;;;4972408;28;20482;-83
2022/12/29 04:35:13;;;;;;;3.22;0.85;;;10.50;99.90;;;;;;4971492;28;20034;-83
2022/12/29 04:37:39;;;;;;;3.88;0.68;;;10.50;99.90;;;;;;4971717;28;20049;-83
2022/12/29 04:40:05;;;;;;;4.28;0.80;;;10.50;99.90;;;;;;4955237;28;20043;-83
2022/12/29 04:42:30;;;;;;;4.20;0.85;;;10.40;99.90;;;;;;4955731;28;20051;-84
2022/12/29 04:44:56;;;;;;;6.55;1.00;;;10.40;99.90;;;;;;4972842;28;20039;-84
2022/12/29 04:47:21;;;;;;;6.32;1.00;;;10.40;99.90;;;;;;4956151;28;20439;-84
2022/12/29 04:49:47;;;;;;;6.78;1.00;;;10.40;99.90;;;;;;4973314;28;20031;-84
2022/12/29 04:52:13;;;;;;;4.75;0.85;;;10.40;99.90;;;;;;4955794;28;20082;-83
2022/12/29 04:54:39;;;;;;;3.72;0.82;;;10.30;99.90;;;;;;4956462;28;20370;-84
2022/12/29 04:57:05;;;;;;;5.25;0.88;;;10.30;99.90;;;;;;4974817;28;20121;-84
2022/12/29 04:59:30;;;;;;;6.65;0.98;;;10.30;99.90;;;;;;4958690;28;20440;-83
2022/12/29 05:01:56;;;;;;;6.65;0.95;;;10.20;99.90;;;;;;4977811;28;20380;-84
2022/12/29 05:04:22;;;;;;;6.22;1.30;;;10.30;99.90;;;;;;4976973;28;20074;-84
2022/12/29 05:06:47;;;;;;;7.72;1.13;;;10.20;99.90;;;;;;4990302;28;20050;-84
2022/12/29 05:09:13;;;;;;;7.75;1.15;;;10.20;99.90;;;;;;4982739;28;20117;-84
2022/12/29 05:11:39;;;;;;;9.23;1.58;;;10.20;99.90;;;;;;4963923;28;20043;-84
2022/12/29 05:14:04;;;;;;;9.40;1.63;;;10.20;99.90;;;;;;4986698;28;20043;-84
2022/12/29 05:16:30;;;;;;;7.22;1.42;;;10.20;99.90;;;;;;4959571;28;20046;-85
2022/12/29 05:18:55;;;;;;;7.82;1.50;;;10.10;99.90;;;;;;4959085;28;20042;-84
2022/12/29 05:21:21;;;;;;;11.50;1.95;;;10.10;99.90;;;;;;4978230;28;20479;-85
2022/12/29 05:23:47;;;;;;;9.07;1.60;;;10.10;99.90;;;;;;4977285;28;20047;-85
2022/12/29 05:26:12;;;;;;;10.88;1.58;;;10.10;99.90;;;;;;4975700;28;20454;-84
2022/12/29 05:28:38;;;;;;;11.10;1.60;;;10.10;99.90;;;;;;4959844;28;20455;-85
2022/12/29 05:31:03;;;;;;;10.02;1.52;;;10.10;99.90;;;;;;4977478;28;20042;-84
2022/12/29 05:33:29;;;;;;;10.38;1.55;;;10.00;99.90;;;;;;4958801;28;20487;-84
2022/12/29 05:35:55;;;;;;;10.57;1.80;;;10.00;99.90;;;;;;4976779;28;20074;-84
2022/12/29 05:38:20;;;;;;;9.85;1.83;;;10.00;99.90;;;;;;4959255;28;20042;-84
2022/12/29 05:40:46;;;;;;;12.80;1.90;;;10.00;99.90;;;;;;4986162;28;20046;-84
2022/12/29 05:43:12;;;;;;;11.55;1.77;;;10.00;99.90;;;;;;4993553;28;20034;-84
2022/12/29 05:45:37;;;;;;;9.65;1.67;;;10.00;99.90;;;;;;4982335;28;20047;-84
2022/12/29 05:48:03;;;;;;;10.07;1.60;;;10.00;99.90;;;;;;4976846;28;20094;-84
2022/12/29 05:50:29;;;;;;;10.35;1.60;;;10.00;99.90;;;;;;4969980;28;20070;-84
2022/12/29 05:52:54;;;;;;;7.90;1.60;;;9.90;99.90;;;;;;4995749;28;20062;-84
2022/12/29 05:55:20;;;;;;;9.00;1.45;;;9.90;99.90;;;;;;4994606;28;20121;-84
2022/12/29 05:57:46;;;;;;;8.32;1.38;;;9.90;99.90;;;;;;4978902;28;20061;-84
2022/12/29 06:00:12;;;;;;;6.88;1.23;;;9.90;99.90;;;;;;4977607;28;20053;-84
2022/12/29 06:02:37;;;;;;;6.30;1.20;;;9.90;99.90;;;;;;4977783;28;20084;-84
2022/12/29 06:05:03;;;;;;;11.85;1.50;;;9.90;99.90;;;;;;4971017;28;20488;-84
2022/12/29 06:07:29;;;;;;;10.25;1.50;;;9.90;99.90;;;;;;4963141;28;20050;-84
2022/12/29 06:09:55;;;;;;;9.65;1.55;;;9.90;99.90;;;;;;4960693;28;20376;-84
2022/12/29 06:12:20;;;;;;;7.20;1.10;;;9.80;99.90;;;;;;4959804;28;20050;-84
2022/12/29 06:14:46;;;;;;;11.38;1.45;;;9.80;99.90;;;;;;4965321;28;20038;-84
2022/12/29 06:17:11;;;;;;;8.88;1.50;;;9.80;99.90;;;;;;4983813;28;20058;-84
2022/12/29 06:19:37;;;;;;;13.27;1.95;;;9.80;99.90;;;;;;4958986;28;20104;-84
2022/12/29 06:22:03;;;;;;;13.10;1.70;;;9.80;99.90;;;;;;4984553;28;20051;-84
2022/12/29 06:24:28;;;;;;;8.82;1.67;;;9.80;99.90;;;;;;4995436;28;20046;-84
2022/12/29 06:26:54;;;;;;;10.60;1.73;;;9.80;99.90;;;;;;4974938;28;20129;-84
2022/12/29 06:29:20;;;;;;;10.68;1.92;;;9.80;99.90;;;;;;4969077;28;20035;-84
2022/12/29 06:31:46;;;;;;;8.75;1.85;;;9.70;99.90;;;;;;4957926;28;20043;-84
2022/12/29 06:34:12;;;;;;;11.60;2.35;;;9.80;99.90;;;;;;4989936;28;20092;-85
2022/12/29 06:36:38;;;;;;;9.43;1.95;;;9.70;99.90;;;;;;4986257;28;20530;-84
2022/12/29 06:39:05;;;;;;;10.30;1.85;;;9.70;99.90;;;;;;4959134;28;20051;-84
2022/12/29 06:41:31;;;;;;;15.57;2.10;;;9.80;99.90;;;;;;4976001;28;20043;-85
2022/12/29 06:43:57;;;;;;;13.88;1.92;;;9.70;99.90;;;;;;4962819;28;20114;-84
2022/12/29 06:46:22;;;;;;;9.20;1.70;;;9.70;99.90;;;;;;4958199;28;20125;-84
2022/12/29 06:48:48;;;;;;;10.10;1.75;;;9.80;99.90;;;;;;4962849;28;20372;-85
2022/12/29 06:51:14;;;;;;;12.73;1.80;;;9.70;99.90;;;;;;4963744;28;20042;-84
2022/12/29 06:53:39;;;;;;;14.63;2.00;;;9.70;99.90;;;;;;4958769;28;20418;-84
2022/12/29 06:56:05;;;;;;;14.07;1.90;;;9.70;99.90;;;;;;4975730;28;20075;-84
2022/12/29 06:58:30;;;;;;;11.55;1.88;;;9.70;99.90;;;;;;4974670;28;20050;-84
2022/12/29 07:00:56;;;;;;;14.02;2.13;;;9.70;99.90;;;;;;4957855;28;20047;-84
2022/12/29 07:03:22;;;;;;;13.70;2.20;;;9.70;99.90;;;;;;4990351;28;20055;-84
2022/12/29 07:05:47;;;;;;;11.63;1.90;;;9.70;99.90;;;;;;4967523;28;20050;-84
2022/12/29 07:08:13;;;;;;;12.07;2.00;;;9.70;99.90;;;;;;4994961;28;20054;-84
2022/12/29 07:10:39;;;;;;;14.65;2.45;;;9.70;99.90;;;;;;4977289;28;20471;-85
2022/12/29 07:13:07;;;;;;;14.02;2.38;;;9.70;99.90;;;;;;4976888;28;20065;-85
2022/12/29 07:15:33;;;;;;;14.00;2.42;;;9.70;99.90;;;;;;4978895;28;20034;-84
2022/12/29 07:17:59;;;;;;;9.23;1.73;;;9.70;99.90;;;;;;4957654;28;20387;-85
2022/12/29 07:20:24;;;;;;;12.80;2.35;;;9.70;99.90;;;;;;4967366;28;20042;-83
2022/12/29 07:22:50;;;;;;;10.52;1.98;;;9.70;99.90;;;;;;4961295;28;20525;-82
2022/12/29 07:25:16;;;;;;;13.75;2.28;;;9.70;99.90;;;;;;4958039;28;20038;-82
2022/12/29 07:27:41;;;;;;;10.75;1.75;;;9.70;99.90;;;;;;4957383;28;20499;-86
2022/12/29 07:30:08;;;;;;;13.00;2.00;;;9.70;99.90;;;;;;4956930;28;20125;-85
2022/12/29 07:32:34;;;;;;;12.23;1.98;;;9.70;99.90;;;;;;4956364;28;20124;-84
2022/12/29 07:34:59;;;;;;;10.05;2.00;;;9.70;99.90;;;;;;4961912;28;20042;-82
2022/12/29 07:37:28;;;;;;;16.67;2.10;;;9.70;99.90;;;;;;4977878;28;20045;-86
2022/12/29 07:39:54;;;;;;;14.82;2.20;;;9.70;99.90;;;;;;4956649;28;20039;-86
2022/12/29 07:42:19;;;;;;;13.77;2.40;;;9.80;99.90;;;;;;4974305;28;20145;-85
2022/12/29 07:44:45;;;;;;;15.50;1.95;;;9.70;99.90;;;;;;4957207;28;20042;-85
2022/12/29 07:47:11;;;;;;;11.77;2.10;;;9.80;99.90;;;;;;4957282;28;20053;-85
2022/12/29 07:49:36;;;;;;;12.18;2.10;;;9.70;99.90;;;;;;4974622;28;20483;-84
2022/12/29 07:52:02;;;;;;;13.77;2.17;;;9.70;99.90;;;;;;4957251;28;20049;-84
2022/12/29 07:54:27;;;;;;;14.75;2.20;;;9.70;99.90;;;;;;4955740;28;20487;-84
2022/12/29 07:56:53;;;;;;;14.77;2.13;;;9.70;99.90;;;;;;4957111;28;20046;-86
2022/12/29 07:59:19;;;;;;;11.32;2.28;;;9.70;99.90;;;;;;4958452;28;20085;-83
2022/12/29 08:01:44;;;;;;;12.57;2.20;;;9.70;99.90;;;;;;4956689;28;20038;-82
2022/12/29 08:04:10;;;;;;;10.18;2.00;;;9.70;99.90;;;;;;4956347;28;20502;-83
2022/12/29 08:06:37;;;;;;;11.18;1.95;;;9.70;99.90;;;;;;4960265;28;20050;-83
2022/12/29 08:09:03;;;;;;;15.80;2.22;;;9.70;99.90;;;;;;4975799;28;20053;-83
2022/12/29 08:11:29;;;;;;;12.55;2.35;;;9.70;99.90;;;;;;4970449;28;20038;-83
2022/12/29 08:13:54;;;;;;;17.95;2.63;;;9.70;99.90;;;;;;4993999;28;20038;-83
2022/12/29 08:16:20;;;;;;;14.80;2.30;;;9.70;99.90;;;;;;4985527;28;20478;-83
2022/12/29 08:18:45;;;;;;;15.15;2.47;;;9.70;99.90;;;;;;4956961;28;20483;-83
2022/12/29 08:21:11;;;;;;;16.15;3.00;;;9.70;99.90;;;;;;4956823;28;20049;-83
2022/12/29 08:23:37;;;;;;;14.88;2.20;;;9.70;99.90;;;;;;4956508;28;20050;-83
2022/12/29 08:26:04;;;;;;;16.45;2.53;;;9.70;99.90;;;;;;4957120;28;20054;-83
2022/12/29 08:28:31;;;;;;;19.20;2.53;;;9.70;99.90;;;;;;4973414;28;20594;-83
2022/12/29 08:30:58;;;;;;;16.73;2.30;;;9.70;99.90;;;;;;4979255;28;20402;-85
2022/12/29 08:33:25;;;;;;;17.58;2.60;;;9.70;99.90;;;;;;4971554;28;20129;-87
2022/12/29 08:35:50;;;;;;;17.27;2.97;;;9.70;99.90;;;;;;4979969;28;20455;-85
2022/12/29 08:38:17;;;;;;;14.43;2.42;;;9.70;99.90;;;;;;4963246;28;20077;-86
2022/12/29 08:40:43;;;;;;;15.88;2.65;;;9.70;99.90;;;;;;4978002;28;20495;-86
2022/12/29 08:43:08;;;;;;;16.05;2.83;;;9.70;99.90;;;;;;4972092;28;20093;-85
2022/12/29 08:45:34;;;;;;;18.50;2.95;;;9.70;99.90;;;;;;4976466;28;20467;-86
2022/12/29 08:47:59;;;;;;;19.60;2.63;;;9.70;99.90;;;;;;4962982;28;20406;-86
2022/12/29 08:50:25;;;;;;;19.92;3.00;;;9.70;99.90;;;;;;4979311;28;20478;-86
2022/12/29 08:52:51;;;;;;;17.75;3.20;;;9.70;99.90;;;;;;4963093;28;20057;-86
2022/12/29 08:55:16;;;;;;;17.70;2.60;;;9.70;99.90;;;;;;4973980;28;20046;-86
2022/12/29 08:57:42;;;;;;;18.08;3.05;;;9.70;99.90;;;;;;4963105;28;20100;-86
2022/12/29 09:00:08;;;;;;;16.55;3.05;;;9.70;99.90;;;;;;4962601;28;20043;-86
2022/12/29 09:02:34;;;;;;;18.60;2.90;;;9.70;99.90;;;;;;4986086;28;20173;-85
2022/12/29 09:05:00;;;;;;;19.08;2.90;;;9.70;99.90;;;;;;4998741;28;20137;-86
2022/12/29 09:07:26;;;;;;;18.08;2.78;;;9.70;99.90;;;;;;4990568;28;20078;-86
2022/12/29 09:09:52;;;;;;;19.92;2.75;;;9.80;99.90;;;;;;4982591;28;20069;-86
2022/12/29 09:12:17;;;;;;;17.30;2.60;;;9.70;99.90;;;;;;4961775;28;20092;-86
2022/12/29 09:14:45;;;;;;;14.15;2.33;;;9.70;99.90;;;;;;4958858;28;20407;-87
2022/12/29 09:19:55;;;;;;;13.88;2.50;;;9.70;99.90;;;;;;4980231;28;20047;-87
2022/12/29 09:22:21;;;;;;;18.58;2.90;;;9.70;99.90;;;;;;4961555;28;20483;-87
2022/12/29 09:24:46;;;;;;;19.33;3.03;;;9.70;99.90;;;;;;4978704;28;20089;-87
2022/12/29 09:27:12;;;;;;;13.48;2.53;;;9.70;99.90;;;;;;4991118;28;20042;-88
2022/12/29 09:29:37;;;;;;;12.50;2.15;;;9.70;99.90;;;;;;4965845;28;20607;-85
2022/12/29 09:32:03;;;;;;;13.93;2.42;;;9.60;99.90;;;;;;4961649;28;20037;-89
2022/12/29 09:34:29;;;;;;;16.17;2.60;;;9.60;99.90;;;;;;4980000;28;20490;-88
2022/12/29 09:36:56;;;;;;;14.43;2.60;;;9.60;99.90;;;;;;4978913;28;20550;-84
2022/12/29 09:39:22;;;;;;;17.30;2.80;;;9.60;99.90;;;;;;4994994;28;20043;-86
2022/12/29 09:42:12;;;;;;;15.30;2.67;;;9.60;99.90;;;;;;4975251;28;20055;-86
2022/12/29 09:45:00;;;;;;;16.08;2.90;;;9.70;99.90;;;;;;4966779;28;20053;-87
2022/12/29 09:47:26;;;;;;;18.65;2.63;;;9.60;99.90;;;;;;4977544;28;20109;-87
2022/12/29 09:49:52;;;;;;;18.70;2.83;;;9.60;99.90;;;;;;4981899;28;20089;-87
2022/12/29 09:52:28;;;;;;;14.80;2.55;;;9.60;99.90;;;;;;4960320;28;20045;-87
2022/12/29 09:55:19;;;;;;;16.40;2.30;;;9.70;99.90;;;;;;4971524;28;20125;-87
2022/12/29 09:58:25;;;;;;;19.23;2.70;;;9.60;99.90;;;;;;4972436;28;20059;-87
2022/12/29 10:01:18;;;;;;;14.35;2.50;;;9.60;99.90;;;;;;4956494;28;20513;-85
2022/12/29 10:03:47;;;;;;;17.35;2.60;;;9.60;99.90;;;;;;4955924;28;20138;-86
2022/12/29 10:06:46;;;;;;;14.60;2.58;;;9.60;99.90;;;;;;4958369;28;20051;-85
2022/12/29 10:09:34;;;;;;;17.67;2.53;;;9.60;99.90;;;;;;4957065;28;20097;-86
2022/12/29 10:12:25;;;;;;;18.02;2.83;;;9.60;99.90;;;;;;4968447;28;20533;-85
2022/12/29 10:15:12;;;;;;;14.60;2.50;;;9.50;99.90;;;;;;4975269;28;20173;-85
2022/12/29 10:17:52;;;;;;;15.07;2.92;;;9.50;99.90;;;;;;4958781;28;20479;-83
2022/12/29 10:20:24;;;;;;;17.00;2.53;;;9.50;99.90;;;;;;4976151;28;20047;-84
2022/12/29 10:23:19;;;;;;;12.63;2.65;;;9.50;99.90;;;;;;4955011;29;20126;-84
2022/12/29 10:25:45;;;;;;;15.88;2.50;;;9.40;99.90;;;;;;4936825;28;20066;-84
2022/12/29 10:28:43;;;;;;;17.10;4.00;;;9.40;99.90;;;;;;4954469;29;20089;-84
2022/12/29 10:31:19;;;;;;;14.60;2.55;;;9.40;99.90;;;;;;4956629;28;20426;-83
2022/12/29 10:33:48;;;;;;;13.48;2.45;;;9.40;99.90;;;;;;4976232;28;20106;-84
2022/12/29 10:36:47;;;;;;;12.82;2.00;;;9.40;99.90;;;;;;4975121;28;20045;-84
2022/12/29 10:39:44;;;;;;;16.23;2.25;;;9.40;99.90;;;;;;4975718;28;20034;-84
2022/12/29 10:42:14;;;;;;;14.73;2.30;;;9.30;99.90;;;;;;4925899;29;20150;-84
2022/12/29 10:44:39;;;;;;;12.80;2.22;;;9.30;99.90;;;;;;4954005;28;20050;-83
2022/12/29 10:47:16;;;;;;;21.58;2.83;;;9.30;99.90;;;;;;4955391;29;20427;-83
2022/12/29 10:49:45;;;;;;;12.50;2.40;;;9.30;99.90;;;;;;4971116;28;20101;-84
2022/12/29 10:52:11;;;;;;;14.77;2.25;;;9.30;99.90;;;;;;4975176;28;20502;-84
2022/12/29 10:54:49;;;;;;;13.30;2.25;;;9.30;99.90;;;;;;4955628;28;20039;-83
2022/12/29 10:57:34;;;;;;;15.52;1.90;;;9.30;99.90;;;;;;4953739;29;20043;-83
2022/12/29 11:00:00;;;;;;;12.20;2.50;;;9.30;99.90;;;;;;4955260;28;20514;-83
2022/12/29 11:02:56;;;;;;;13.82;2.20;;;9.30;99.90;;;;;;4974721;28;20042;-84
2022/12/29 11:06:00;;;;;;;15.05;2.10;;;9.30;99.90;;;;;;4938299;28;20064;-82
2022/12/29 11:08:31;;;;;;;12.65;2.33;;;9.30;99.90;;;;;;4952077;29;20059;-83
2022/12/29 11:11:08;;;;;;;12.43;2.13;;;9.20;99.90;;;;;;4955469;29;20058;-83
2022/12/29 11:13:49;;;;;;;11.60;2.15;;;9.20;99.90;;;;;;4956144;29;20043;-84
2022/12/29 11:16:23;;;;;;;10.45;1.85;;;9.20;99.90;;;;;;4955982;29;20071;-84
2022/12/29 11:18:48;;;;;;;14.25;2.33;;;9.20;99.90;;;;;;4956529;28;20058;-92
2022/12/29 11:21:40;;;;;;;14.10;2.15;;;9.20;99.90;;;;;;4967790;28;20498;-85
2022/12/29 11:24:22;;;;;;;13.10;2.13;;;9.20;99.90;;;;;;4945175;29;20070;-85
2022/12/29 11:27:08;;;;;;;15.25;2.38;;;9.20;99.90;;;;;;4935735;28;20087;-85
2022/12/29 11:29:39;;;;;;;11.77;2.30;;;9.20;99.90;;;;;;4944496;29;20051;-86
2022/12/29 11:32:26;;;;;;;14.10;2.53;;;9.20;99.90;;;;;;4934428;29;20048;-85
2022/12/29 11:34:52;;;;;;;16.83;2.67;;;9.20;99.90;;;;;;4933869;29;20051;-85
2022/12/29 11:37:28;;;;;;;18.17;3.53;;;9.20;99.90;;;;;;4956347;28;20047;-85
2022/12/29 11:40:05;;;;;;;19.83;3.35;;;9.30;99.90;;;;;;4940235;29;20066;-85
2022/12/29 11:42:42;;;;;;;18.08;2.65;;;9.20;99.90;;;;;;4939111;28;20043;-85
2022/12/29 11:45:20;;;;;;;14.77;2.80;;;9.20;99.90;;;;;;4963307;28;20546;-84
2022/12/29 11:47:58;;;;;;;20.88;3.00;;;9.20;99.90;;;;;;4935009;29;20036;-85
2022/12/29 11:50:30;;;;;;;20.92;3.33;;;9.20;99.90;;;;;;4934972;29;20043;-85
2022/12/29 11:53:39;;;;;;;22.38;3.22;;;9.20;99.90;;;;;;4937124;28;20126;-89
2022/12/29 11:56:10;;;;;;;22.70;3.70;;;9.20;99.90;;;;;;4942739;29;20078;-89
2022/12/29 11:58:38;;;;;;;19.05;3.60;;;9.30;99.90;;;;;;4938483;28;20487;-85
2022/12/29 12:01:28;;;;;;;24.30;3.67;;;9.30;99.90;;;;;;4944027;29;20517;-85
2022/12/29 12:04:07;;;;;;;23.00;3.25;;;9.30;99.90;;;;;;4933503;28;20098;-85
2022/12/29 12:06:41;;;;;;;23.73;4.13;;;9.40;99.90;;;;;;4961837;28;20499;-85
2022/12/29 12:09:23;;;;;;;29.67;4.22;;;9.40;99.90;;;;;;4958389;28;20057;-85
2022/12/29 12:11:53;;;;;;;23.85;3.75;;;9.40;99.90;;;;;;4960737;28;20051;-85
2022/12/29 12:14:40;;;;;;;26.58;4.25;;;9.50;99.90;;;;;;4960162;28;20034;-84
2022/12/29 12:17:16;;;;;;;25.55;4.53;;;9.50;99.90;;;;;;4961648;28;20094;-86
2022/12/29 12:19:48;;;;;;;21.90;3.90;;;9.50;99.90;;;;;;4957382;28;20043;-86
2022/12/29 12:22:21;;;;;;;21.17;3.70;;;9.60;99.90;;;;;;4973487;28;20051;-84
2022/12/29 12:25:14;;;;;;;25.25;4.15;;;9.50;99.90;;;;;;4956604;28;20690;-85
2022/12/29 12:28:00;;;;;;;22.67;3.80;;;9.50;99.90;;;;;;4973025;28;20062;-85
2022/12/29 12:30:31;;;;;;;21.75;3.88;;;9.50;99.90;;;;;;4973629;28;20049;-85
2022/12/29 12:33:23;;;;;;;23.83;3.85;;;9.50;99.90;;;;;;4974009;28;20136;-84
2022/12/29 12:36:10;;;;;;;20.52;3.70;;;9.50;99.90;;;;;;4955020;28;20133;-84
2022/12/29 12:38:45;;;;;;;23.45;3.90;;;9.50;99.90;;;;;;4953567;29;20147;-83
2022/12/29 12:41:21;;;;;;;23.42;3.47;;;9.50;99.90;;;;;;4954716;28;20047;-84
2022/12/29 12:43:51;;;;;;;20.15;3.78;;;9.60;99.90;;;;;;4972230;28;20055;-85
2022/12/29 12:46:25;;;;;;;20.48;3.88;;;9.60;99.90;;;;;;4953181;28;20051;-87
2022/12/29 12:49:09;;;;;;;19.15;3.30;;;9.60;99.90;;;;;;4960588;28;20046;-84
2022/12/29 12:51:56;;;;;;;20.38;3.45;;;9.70;99.90;;;;;;4970858;28;20051;-82
2022/12/29 12:54:50;;;;;;;23.70;3.35;;;9.70;99.90;;;;;;4937783;28;20415;-83
2022/12/29 12:57:50;;;;;;;22.73;3.60;;;9.70;99.90;;;;;;4948869;28;20436;-82
2022/12/29 13:00:18;;;;;;;22.77;6.03;;;9.70;99.90;;;;;;4947659;28;20505;-83
2022/12/29 13:02:46;;;;;;;21.10;3.90;;;9.70;99.90;;;;;;4958930;28;20054;-83
2022/12/29 13:05:30;;;;;;;23.38;3.47;;;9.70;99.90;;;;;;4972900;28;20503;-83
2022/12/29 13:08:14;;;;;;;21.70;3.58;;;9.80;99.90;;;;;;4973628;28;20055;-83
2022/12/29 13:10:54;;;;;;;20.25;3.30;;;9.80;99.90;;;;;;4953222;28;20047;-83
2022/12/29 13:13:41;;;;;;;16.35;2.95;;;9.80;99.90;;;;;;4966910;28;20078;-83
2022/12/29 13:16:09;;;;;;;18.85;3.50;;;9.80;99.90;;;;;;4948338;28;20098;-82
2022/12/29 13:18:48;;;;;;;18.65;3.65;;;9.80;99.90;;;;;;4956730;28;20050;-83
2022/12/29 13:21:55;;;;;;;20.13;3.05;;;9.90;99.90;;;;;;4948134;28;20047;-83
2022/12/29 13:24:57;;;;;;;19.00;2.67;;;9.90;99.90;;;;;;4948743;28;20368;-82
2022/12/29 13:28:00;;;;;;;17.13;2.58;;;9.90;99.90;;;;;;4946134;28;20078;-82
2022/12/29 13:30:50;;;;;;;15.68;2.85;;;9.90;99.90;;;;;;4942721;29;20491;-83
2022/12/29 13:33:44;;;;;;;18.27;2.78;;;9.90;99.90;;;;;;4938609;28;20039;-83
2022/12/29 13:36:24;;;;;;;13.30;2.53;;;9.90;99.90;;;;;;4955656;28;20043;-82
2022/12/29 13:39:12;;;;;;;14.07;2.50;;;9.90;99.90;;;;;;4942962;28;20047;-82
2022/12/29 13:41:46;;;;;;;15.80;4.25;;;9.90;99.90;;;;;;4953598;28;20047;-83
2022/12/29 13:44:17;;;;;;;15.18;2.95;;;9.90;99.90;;;;;;4949553;28;20097;-83
2022/12/29 13:46:46;;;;;;;13.18;2.40;;;9.90;99.90;;;;;;4946056;29;20039;-83
2022/12/29 13:49:19;;;;;;;15.00;2.78;;;9.90;99.90;;;;;;4950058;28;20043;-83
2022/12/29 13:51:53;;;;;;;14.63;2.90;;;9.90;99.90;;;;;;4977966;28;20043;-82
2022/12/29 13:54:36;;;;;;;20.58;3.30;;;9.90;99.90;;;;;;4949476;29;20051;-83